Umar1 — 9HA2498 — position and weather

sailwx.info

Track history (hours):
 
Tides and Currents Weather Stations Pressure Air Temp Water Temp Dewpoint Dewpoint Depression Visibility Wind Speed Wind Dir Waves Ship Positions

Umar1

Last reported at 2017-May-25 23:59 UTC. Time now 2017-May-26 00:02 UTC.
Position N 53°32' E 010°00'.

Length 100 m; draft 5 m.

Type: Ship. MMSI: 248751000.

Date/timePositionNaut miles runAvg speedWind from/ knotsBaromVisibWave heightAir tempDewpointWater temp
2017-May-25 23:59N 53°32' E 010°00'0 0.1
2017-May-25 23:31N 53°32' E 010°00'2 3.3
2017-May-25 23:01N 53°33' E 009°58'5 9.1
2017-May-25 22:30N 53°33' E 009°50'611.1
2017-May-25 22:00N 53°34' E 009°41'510.2
2017-May-25 21:30N 53°37' E 009°34'5 9.6
2017-May-25 21:00N 53°41' E 009°30'5 9.4
2017-May-25 20:30N 53°45' E 009°25'4 9.0
2017-May-25 20:01N 53°49' E 009°22'4 8.9
2017-May-25 19:30N 53°52' E 009°17'4 8.4
2017-May-25 19:00N 53°53' E 009°09'1 1.8
2017-May-25 18:30N 53°54' E 009°09'2 4.4
2017-May-25 18:00N 53°55' E 009°12'4 8.2
2017-May-25 17:30N 53°58' E 009°16'74 5.8
2017-May-25 04:50N 54°36' E 011°04'14 9.1
2017-May-25 03:17N 54°32' E 011°28'2 9.1
2017-May-25 03:00N 54°31' E 011°31'4 8.9
2017-May-25 02:30N 54°29' E 011°39'5 9.4
2017-May-25 02:00N 54°27' E 011°46'12 9.9
2017-May-25 00:47N 54°27' E 012°07'3 9.9
2017-May-25 00:31N 54°28' E 012°10'611.2
2017-May-25 00:01N 54°34' E 012°13'510.4
2017-May-24 23:31N 54°38' E 012°18'510.5
2017-May-24 23:01N 54°41' E 012°26'14410.2
2017-May-24 08:52N 55°00' E 016°34'22 9.8
2017-May-24 06:40N 54°53' E 017°10'3411.0
2017-May-24 03:35N 54°59' E 018°07'311.2
2017-May-24 03:18N 54°60' E 018°13'311.2
2017-May-24 03:00N 55°00' E 018°19'611.2
2017-May-24 02:30N 55°01' E 018°28'511.0
2017-May-24 02:01N 54°58' E 018°36'611.1
2017-May-24 01:31N 54°54' E 018°44'611.3
2017-May-24 01:01N 54°51' E 018°51'611.1
2017-May-24 00:31N 54°48' E 018°59'5 9.2
2017-May-24 00:01N 54°43' E 018°60'611.4
2017-May-23 23:31N 54°38' E 018°56'611.2
2017-May-23 23:01N 54°33' E 018°50'611.5
2017-May-23 22:31N 54°29' E 018°44'4 9.0
2017-May-23 22:00N 54°25' E 018°39'2 3.0
2017-May-23 21:31N 54°24' E 018°41'0 0.0
2017-May-23 20:59N 54°24' E 018°41'0 0.0
2017-May-23 20:23N 54°24' E 018°41'0 0.0
2017-May-23 19:59N 54°24' E 018°41'0 0.0
2017-May-23 19:29N 54°24' E 018°41'0 0.0
2017-May-23 18:59N 54°24' E 018°41'0 0.0
2017-May-23 18:29N 54°24' E 018°41'0 0.0
2017-May-23 17:59N 54°24' E 018°41'0 0.0
2017-May-23 17:29N 54°24' E 018°41'0 0.0
2017-May-23 16:53N 54°24' E 018°41'0 0.0
2017-May-23 16:29N 54°24' E 018°41'0 0.0
2017-May-23 15:59N 54°24' E 018°41'0 0.0
2017-May-23 15:29N 54°24' E 018°41'0 0.0
2017-May-23 14:59N 54°24' E 018°41'0 0.0
2017-May-23 13:59N 54°24' E 018°41'0 0.0
2017-May-23 13:20N 54°24' E 018°41'0 0.0
2017-May-23 12:56N 54°24' E 018°41'0 0.0
2017-May-23 12:29N 54°24' E 018°41'0 0.0
2017-May-23 11:59N 54°24' E 018°41'0 0.0
2017-May-23 11:29N 54°24' E 018°41'0 0.0
2017-May-23 10:59N 54°24' E 018°41'0 0.0
2017-May-23 10:29N 54°24' E 018°41'0 0.0
2017-May-23 09:59N 54°24' E 018°41'0 0.0
2017-May-23 09:29N 54°24' E 018°41'0 0.0
2017-May-23 08:59N 54°24' E 018°41'0 0.0
2017-May-23 08:29N 54°24' E 018°41'0 0.0
2017-May-23 07:59N 54°24' E 018°41'0 0.0
2017-May-23 07:29N 54°24' E 018°41'0 0.0
2017-May-23 06:59N 54°24' E 018°41'0 0.0
2017-May-23 06:29N 54°24' E 018°41'0 0.0
2017-May-23 05:56N 54°24' E 018°41'0 0.0
2017-May-23 05:29N 54°24' E 018°41'0 0.0
2017-May-23 04:59N 54°24' E 018°41'0 0.0
2017-May-23 04:29N 54°24' E 018°41'0 0.0
2017-May-23 03:59N 54°24' E 018°41'0 0.0
2017-May-23 03:29N 54°24' E 018°41'0 0.0
2017-May-23 02:59N 54°24' E 018°41'0 0.0
2017-May-23 02:29N 54°24' E 018°41'0 0.0
2017-May-23 01:59N 54°24' E 018°41'0 0.0
2017-May-23 01:29N 54°24' E 018°41'0 0.0
2017-May-23 00:59N 54°24' E 018°41'0 0.0
2017-May-23 00:29N 54°24' E 018°41'0 0.0
2017-May-22 23:59N 54°24' E 018°41'0 0.0
2017-May-22 23:29N 54°24' E 018°41'0 0.0
2017-May-22 23:00N 54°24' E 018°41'2 3.1
2017-May-22 22:30N 54°25' E 018°39'2 4.8
2017-May-22 22:00N 54°27' E 018°41'1 1.3
2017-May-22 21:28N 54°28' E 018°42'0 0.0
2017-May-22 20:58N 54°28' E 018°42'0 0.1
2017-May-22 20:28N 54°28' E 018°42'0 0.0
2017-May-22 19:58N 54°28' E 018°42'0 0.0
2017-May-22 19:28N 54°28' E 018°42'0 0.0
2017-May-22 18:58N 54°28' E 018°42'0 0.0
2017-May-22 18:28N 54°28' E 018°42'0 0.0
2017-May-22 17:58N 54°28' E 018°42'0 0.0
2017-May-22 17:28N 54°28' E 018°42'0 0.0
2017-May-22 16:58N 54°28' E 018°42'0 0.0
2017-May-22 16:25N 54°28' E 018°42'0 0.0
2017-May-22 15:58N 54°28' E 018°42'0 0.0
2017-May-22 15:28N 54°28' E 018°42'0 0.0
2017-May-22 14:55N 54°28' E 018°42'0 0.0
2017-May-22 13:58N 54°27' E 018°42'0 0.0
2017-May-22 13:28N 54°27' E 018°42'0 0.0
2017-May-22 12:58N 54°27' E 018°42'0 0.0
2017-May-22 12:28N 54°27' E 018°42'0 0.0
2017-May-22 11:58N 54°27' E 018°42'0 0.0
2017-May-22 11:28N 54°27' E 018°42'0 0.0
2017-May-22 10:58N 54°27' E 018°42'0 0.0
2017-May-22 10:28N 54°27' E 018°42'0 0.0
2017-May-22 09:58N 54°27' E 018°42'0 0.0
2017-May-22 09:28N 54°27' E 018°42'0 0.0
2017-May-22 08:58N 54°27' E 018°42'0 0.0
2017-May-22 08:28N 54°27' E 018°42'0 0.0
2017-May-22 07:58N 54°27' E 018°42'0 0.0
2017-May-22 07:28N 54°27' E 018°42'0 0.0
2017-May-22 06:58N 54°27' E 018°42'0 0.0
2017-May-22 06:28N 54°27' E 018°42'0 0.0
2017-May-22 05:58N 54°27' E 018°42'0 0.0
2017-May-22 05:28N 54°27' E 018°42'0 0.2
2017-May-22 05:01N 54°28' E 018°42'3 5.6
2017-May-22 04:31N 54°30' E 018°44'611.4
2017-May-22 04:01N 54°34' E 018°51'510.6
2017-May-22 03:31N 54°39' E 018°55'510.2
2017-May-22 03:00N 54°44' E 018°59'4 8.4
2017-May-22 02:30N 54°48' E 018°57'611.0
2017-May-22 02:00N 54°51' E 018°50'511.0
2017-May-22 01:31N 54°55' E 018°42'611.2
2017-May-22 01:01N 54°58' E 018°35'611.2
2017-May-22 00:30N 55°01' E 018°26'611.1
2017-May-22 00:00N 54°60' E 018°16'511.1
2017-May-21 23:30N 54°58' E 018°07'611.0
2017-May-21 23:00N 54°57' E 017°58'611.1
2017-May-21 22:30N 54°56' E 017°48'611.0
2017-May-21 22:00N 54°55' E 017°39'8711.6
2017-May-21 14:31N 54°39' E 015°10'811.6
2017-May-21 13:52N 54°38' E 014°57'511.7
2017-May-21 13:28N 54°38' E 014°49'6711.2
2017-May-21 07:32N 54°47' E 012°55'011.7
2017-May-21 07:30N 54°47' E 012°55'611.6
2017-May-21 07:00N 54°46' E 012°45'611.5
2017-May-21 06:30N 54°42' E 012°37'1611.0
2017-May-21 05:02N 54°31' E 012°17'011.7
2017-May-21 05:00N 54°31' E 012°16'3910.1
2017-May-21 01:10N 54°35' E 011°10'211.8
2017-May-21 01:00N 54°35' E 011°06'72 6.9
2017-May-20 14:41N 54°02' E 009°18'5 7.9
2017-May-20 14:00N 53°57' E 009°14'0 0.7
2017-May-20 13:30N 53°56' E 009°13'2 4.8
2017-May-20 13:00N 53°55' E 009°11'0 0.0
2017-May-20 12:30N 53°55' E 009°11'0 0.0
2017-May-20 12:00N 53°55' E 009°11'0 0.0
2017-May-20 11:30N 53°55' E 009°11'0 0.0
2017-May-20 11:01N 53°55' E 009°11'0 0.0
2017-May-20 10:30N 53°55' E 009°11'0 0.0
2017-May-20 10:00N 53°55' E 009°11'0 0.0
2017-May-20 09:30N 53°55' E 009°11'0 0.0
2017-May-20 09:00N 53°55' E 009°11'0 0.0
2017-May-20 08:30N 53°55' E 009°11'0 0.9
2017-May-20 08:00N 53°54' E 009°10'1 2.2
2017-May-20 07:30N 53°54' E 009°09'2 3.5
2017-May-20 07:00N 53°53' E 009°06'4 8.6
2017-May-20 06:30N 53°51' E 008°59'713.4
2017-May-20 06:00N 53°50' E 008°48'712.8
2017-May-20 05:26N 53°56' E 008°40'712.8
2017-May-20 04:51N 53°59' E 008°28'201 9.7
2017-May-19 08:13N 52°44' E 003°15'312.2
2017-May-19 08:00N 52°41' E 003°15'612.1
2017-May-19 07:29N 52°35' E 003°13'66 9.7
2017-May-19 00:43N 51°37' E 002°23'2 9.0
2017-May-19 00:30N 51°35' E 002°21'4 8.8
2017-May-19 00:00N 51°32' E 002°17'4 8.9
2017-May-18 23:30N 51°28' E 002°13'4 8.9
2017-May-18 23:00N 51°25' E 002°08'4 9.0
2017-May-18 22:30N 51°23' E 002°02'5 9.6
2017-May-18 22:00N 51°26' E 001°55'510.6
2017-May-18 21:30N 51°30' E 001°49'510.9
2017-May-18 21:00N 51°30' E 001°40'510.2
2017-May-18 20:30N 51°28' E 001°33'4 8.5
2017-May-18 20:00N 51°25' E 001°28'1 2.6
2017-May-18 19:30N 51°25' E 001°26'0 0.0
2017-May-18 19:00N 51°25' E 001°26'0 0.0
2017-May-18 18:30N 51°25' E 001°26'0 0.0
2017-May-18 17:59N 51°25' E 001°26'0 0.2
2017-May-18 17:30N 51°25' E 001°26'0 0.1
2017-May-18 17:00N 51°25' E 001°26'0 0.0
2017-May-18 16:30N 51°25' E 001°26'0 0.0
2017-May-18 16:00N 51°25' E 001°26'0 0.0
2017-May-18 15:30N 51°25' E 001°26'0 0.0
2017-May-18 15:00N 51°25' E 001°26'0 0.1
2017-May-18 14:30N 51°25' E 001°26'0 0.0
2017-May-18 13:30N 51°25' E 001°26'0 0.0
2017-May-18 13:00N 51°25' E 001°26'0 0.0
2017-May-18 12:30N 51°25' E 001°26'0 0.0
2017-May-18 12:00N 51°25' E 001°26'0 0.0
2017-May-18 11:30N 51°25' E 001°26'0 0.0
2017-May-18 11:00N 51°25' E 001°26'0 0.1
2017-May-18 10:30N 51°25' E 001°26'0 0.1
2017-May-18 10:00N 51°25' E 001°26'0 0.0
2017-May-18 09:30N 51°25' E 001°26'0 0.0
2017-May-18 09:00N 51°25' E 001°26'0 0.0
2017-May-18 08:30N 51°25' E 001°26'0 0.0
2017-May-18 08:01N 51°25' E 001°26'0 0.0
2017-May-18 07:30N 51°25' E 001°26'0 0.0
2017-May-18 07:00N 51°25' E 001°26'0 0.0
2017-May-18 06:30N 51°25' E 001°26'0 0.0
2017-May-18 06:01N 51°25' E 001°26'0 0.0
2017-May-18 05:30N 51°25' E 001°26'0 0.2
2017-May-18 05:00N 51°25' E 001°26'0 0.1
2017-May-18 04:30N 51°25' E 001°26'0 0.0
2017-May-18 04:00N 51°25' E 001°26'0 0.0
2017-May-18 03:30N 51°25' E 001°26'0 0.6
2017-May-18 03:00N 51°25' E 001°26'2 4.3
2017-May-18 02:30N 51°27' E 001°28'9 9.7
2017-May-18 01:37N 51°29' E 001°14'1 9.7
2017-May-18 01:29N 51°29' E 001°12'5 9.9
2017-May-18 01:00N 51°29' E 001°05'710.3
2017-May-18 00:20N 51°29' E 000°54'410.7
2017-May-18 00:00N 51°29' E 000°48'511.2
2017-May-17 23:31N 51°30' E 000°39'611.2
2017-May-17 23:01N 51°30' E 000°30'510.7
2017-May-17 22:31N 51°27' E 000°23'4 7.5
2017-May-17 22:01N 51°28' E 000°17'5 9.6
2017-May-17 21:31N 51°30' E 000°10'0 0.1
2017-May-17 21:00N 51°30' E 000°10'0 0.0
2017-May-17 20:30N 51°30' E 000°10'0 0.0
2017-May-17 20:00N 51°30' E 000°10'0 0.0
2017-May-17 19:30N 51°30' E 000°10'0 0.0
2017-May-17 19:00N 51°30' E 000°10'0 0.0
2017-May-17 18:24N 51°30' E 000°10'0 0.0
2017-May-17 18:00N 51°30' E 000°10'0 0.0
2017-May-17 17:30N 51°30' E 000°10'0 0.0
2017-May-17 17:00N 51°30' E 000°10'0 0.0
2017-May-17 16:30N 51°30' E 000°10'0 0.0
2017-May-17 16:00N 51°30' E 000°10'0 0.0
2017-May-17 15:30N 51°30' E 000°10'0 0.0
2017-May-17 15:00N 51°30' E 000°10'0 0.0
2017-May-17 14:00N 51°30' E 000°10'0 0.0
2017-May-17 13:30N 51°30' E 000°10'0 0.0
2017-May-17 13:00N 51°30' E 000°10'0 0.0
2017-May-17 12:27N 51°30' E 000°10'0 0.0
2017-May-17 11:57N 51°30' E 000°10'0 0.0
2017-May-17 11:30N 51°30' E 000°10'0 0.0
2017-May-17 11:00N 51°30' E 000°10'0 0.0
2017-May-17 10:30N 51°30' E 000°10'0 0.0
2017-May-17 09:57N 51°30' E 000°10'0 0.0
2017-May-17 09:30N 51°30' E 000°10'0 0.0
2017-May-17 09:01N 51°30' E 000°10'2 4.3
2017-May-17 08:30N 51°29' E 000°14'1 2.5
2017-May-17 08:01N 51°28' E 000°15'0 0.0
2017-May-17 07:31N 51°28' E 000°15'0 0.0
2017-May-17 07:00N 51°28' E 000°15'0 0.0
2017-May-17 06:31N 51°28' E 000°15'0 0.0
2017-May-17 06:00N 51°28' E 000°15'0 0.0
2017-May-17 05:31N 51°28' E 000°15'0 0.0
2017-May-17 05:01N 51°28' E 000°15'0 0.0
2017-May-17 04:31N 51°28' E 000°15'0 0.0
2017-May-17 04:01N 51°28' E 000°15'0 0.0
2017-May-17 03:31N 51°28' E 000°15'0 0.0
2017-May-17 03:01N 51°28' E 000°15'0 0.0
2017-May-17 02:31N 51°28' E 000°15'0 0.0
2017-May-17 02:01N 51°28' E 000°15'0 0.0
2017-May-17 01:31N 51°28' E 000°15'0 0.0
2017-May-17 01:01N 51°28' E 000°15'0 0.0
2017-May-17 00:31N 51°28' E 000°15'0 0.0
2017-May-17 00:01N 51°28' E 000°15'0 0.0
2017-May-16 23:31N 51°28' E 000°15'0 0.0
2017-May-16 23:01N 51°28' E 000°15'0 0.0
2017-May-16 22:31N 51°28' E 000°15'0 0.0
2017-May-16 22:01N 51°28' E 000°15'0 0.0
2017-May-16 21:31N 51°28' E 000°15'0 0.0
2017-May-16 21:01N 51°28' E 000°15'0 0.0
2017-May-16 20:31N 51°28' E 000°15'0 0.0
2017-May-16 20:01N 51°28' E 000°15'0 0.0
2017-May-16 19:31N 51°28' E 000°15'0 0.0
2017-May-16 19:01N 51°28' E 000°15'0 0.0
2017-May-16 18:31N 51°28' E 000°15'0 0.0
2017-May-16 18:01N 51°28' E 000°15'0 0.0
2017-May-16 17:31N 51°28' E 000°15'0 0.0
2017-May-16 17:01N 51°28' E 000°15'0 0.0
2017-May-16 16:31N 51°28' E 000°15'0 0.0
2017-May-16 16:01N 51°28' E 000°15'0 0.0
2017-May-16 15:31N 51°28' E 000°15'0 0.1
2017-May-16 15:01N 51°28' E 000°15'3 5.5
2017-May-16 14:31N 51°28' E 000°20'8 8.0
2017-May-16 13:30N 51°30' E 000°32'510.7
2017-May-16 13:00N 51°30' E 000°40'510.9
2017-May-16 12:30N 51°30' E 000°49'711.1
2017-May-16 11:54N 51°30' E 000°60'411.2
2017-May-16 11:30N 51°30' E 001°07'611.3
2017-May-16 10:58N 51°29' E 001°17'710.8
2017-May-16 10:22N 51°28' E 001°27'3 8.7
2017-May-16 10:00N 51°25' E 001°29'2 3.4
2017-May-16 09:30N 51°25' E 001°27'0 0.4
2017-May-16 09:00N 51°25' E 001°27'0 0.3
2017-May-16 08:30N 51°25' E 001°27'0 0.0
2017-May-16 08:00N 51°25' E 001°27'0 0.0
2017-May-16 07:30N 51°25' E 001°27'0 0.0
2017-May-16 07:00N 51°25' E 001°27'0 0.0
2017-May-16 06:30N 51°25' E 001°27'0 0.0
2017-May-16 06:00N 51°25' E 001°27'0 0.0
2017-May-16 05:30N 51°25' E 001°27'0 0.0
2017-May-16 05:00N 51°25' E 001°27'0 0.1
2017-May-16 04:30N 51°25' E 001°27'0 0.1
2017-May-16 04:00N 51°25' E 001°27'0 0.1
2017-May-16 03:30N 51°25' E 001°26'0 0.1
2017-May-16 03:00N 51°25' E 001°26'0 0.0
2017-May-16 02:30N 51°25' E 001°26'0 0.0
2017-May-16 02:00N 51°25' E 001°26'0 0.0
2017-May-16 01:30N 51°25' E 001°26'0 0.0
2017-May-16 01:00N 51°25' E 001°26'0 0.0
2017-May-16 00:30N 51°25' E 001°26'0 0.0
2017-May-16 00:00N 51°25' E 001°26'  
Track history (hours):
 
Tides and Currents Weather Stations Pressure Air Temp Water Temp Dewpoint Dewpoint Depression Visibility Wind Speed Wind Dir Waves Ship Positions

Umar1

Last reported at 2017-May-25 23:59 UTC. Time now 2017-May-26 00:02 UTC.
Position N 53°32' E 010°00'.

Length 100 m; draft 5 m.

Type: Ship. MMSI: 248751000.

Date/timePositionNaut miles runAvg speedWind from/ knotsBaromVisibWave heightAir tempDewpointWater temp
2017-May-25 23:59N 53°32' E 010°00'0 0.1
2017-May-25 23:31N 53°32' E 010°00'2 3.3
2017-May-25 23:01N 53°33' E 009°58'5 9.1
2017-May-25 22:30N 53°33' E 009°50'611.1
2017-May-25 22:00N 53°34' E 009°41'510.2
2017-May-25 21:30N 53°37' E 009°34'5 9.6
2017-May-25 21:00N 53°41' E 009°30'5 9.4
2017-May-25 20:30N 53°45' E 009°25'4 9.0
2017-May-25 20:01N 53°49' E 009°22'4 8.9
2017-May-25 19:30N 53°52' E 009°17'4 8.4
2017-May-25 19:00N 53°53' E 009°09'1 1.8
2017-May-25 18:30N 53°54' E 009°09'2 4.4
2017-May-25 18:00N 53°55' E 009°12'4 8.2
2017-May-25 17:30N 53°58' E 009°16'74 5.8
2017-May-25 04:50N 54°36' E 011°04'14 9.1
2017-May-25 03:17N 54°32' E 011°28'2 9.1
2017-May-25 03:00N 54°31' E 011°31'4 8.9
2017-May-25 02:30N 54°29' E 011°39'5 9.4
2017-May-25 02:00N 54°27' E 011°46'12 9.9
2017-May-25 00:47N 54°27' E 012°07'3 9.9
2017-May-25 00:31N 54°28' E 012°10'611.2
2017-May-25 00:01N 54°34' E 012°13'510.4
2017-May-24 23:31N 54°38' E 012°18'510.5
2017-May-24 23:01N 54°41' E 012°26'14410.2
2017-May-24 08:52N 55°00' E 016°34'22 9.8
2017-May-24 06:40N 54°53' E 017°10'3411.0
2017-May-24 03:35N 54°59' E 018°07'311.2
2017-May-24 03:18N 54°60' E 018°13'311.2
2017-May-24 03:00N 55°00' E 018°19'611.2
2017-May-24 02:30N 55°01' E 018°28'511.0
2017-May-24 02:01N 54°58' E 018°36'611.1
2017-May-24 01:31N 54°54' E 018°44'611.3
2017-May-24 01:01N 54°51' E 018°51'611.1
2017-May-24 00:31N 54°48' E 018°59'5 9.2
2017-May-24 00:01N 54°43' E 018°60'611.4
2017-May-23 23:31N 54°38' E 018°56'611.2
2017-May-23 23:01N 54°33' E 018°50'611.5
2017-May-23 22:31N 54°29' E 018°44'4 9.0
2017-May-23 22:00N 54°25' E 018°39'2 3.0
2017-May-23 21:31N 54°24' E 018°41'0 0.0
2017-May-23 20:59N 54°24' E 018°41'0 0.0
2017-May-23 20:23N 54°24' E 018°41'0 0.0
2017-May-23 19:59N 54°24' E 018°41'0 0.0
2017-May-23 19:29N 54°24' E 018°41'0 0.0
2017-May-23 18:59N 54°24' E 018°41'0 0.0
2017-May-23 18:29N 54°24' E 018°41'0 0.0
2017-May-23 17:59N 54°24' E 018°41'0 0.0
2017-May-23 17:29N 54°24' E 018°41'0 0.0
2017-May-23 16:53N 54°24' E 018°41'0 0.0
2017-May-23 16:29N 54°24' E 018°41'0 0.0
2017-May-23 15:59N 54°24' E 018°41'0 0.0
2017-May-23 15:29N 54°24' E 018°41'0 0.0
2017-May-23 14:59N 54°24' E 018°41'0 0.0
2017-May-23 13:59N 54°24' E 018°41'0 0.0
2017-May-23 13:20N 54°24' E 018°41'0 0.0
2017-May-23 12:56N 54°24' E 018°41'0 0.0
2017-May-23 12:29N 54°24' E 018°41'0 0.0
2017-May-23 11:59N 54°24' E 018°41'0 0.0
2017-May-23 11:29N 54°24' E 018°41'0 0.0
2017-May-23 10:59N 54°24' E 018°41'0 0.0
2017-May-23 10:29N 54°24' E 018°41'0 0.0
2017-May-23 09:59N 54°24' E 018°41'0 0.0
2017-May-23 09:29N 54°24' E 018°41'0 0.0
2017-May-23 08:59N 54°24' E 018°41'0 0.0
2017-May-23 08:29N 54°24' E 018°41'0 0.0
2017-May-23 07:59N 54°24' E 018°41'0 0.0
2017-May-23 07:29N 54°24' E 018°41'0 0.0
2017-May-23 06:59N 54°24' E 018°41'0 0.0
2017-May-23 06:29N 54°24' E 018°41'0 0.0
2017-May-23 05:56N 54°24' E 018°41'0 0.0
2017-May-23 05:29N 54°24' E 018°41'0 0.0
2017-May-23 04:59N 54°24' E 018°41'0 0.0
2017-May-23 04:29N 54°24' E 018°41'0 0.0
2017-May-23 03:59N 54°24' E 018°41'0 0.0
2017-May-23 03:29N 54°24' E 018°41'0 0.0
2017-May-23 02:59N 54°24' E 018°41'0 0.0
2017-May-23 02:29N 54°24' E 018°41'0 0.0
2017-May-23 01:59N 54°24' E 018°41'0 0.0
2017-May-23 01:29N 54°24' E 018°41'0 0.0
2017-May-23 00:59N 54°24' E 018°41'0 0.0
2017-May-23 00:29N 54°24' E 018°41'0 0.0
2017-May-22 23:59N 54°24' E 018°41'0 0.0
2017-May-22 23:29N 54°24' E 018°41'0 0.0
2017-May-22 23:00N 54°24' E 018°41'2 3.1
2017-May-22 22:30N 54°25' E 018°39'2 4.8
2017-May-22 22:00N 54°27' E 018°41'1 1.3
2017-May-22 21:28N 54°28' E 018°42'0 0.0
2017-May-22 20:58N 54°28' E 018°42'0 0.1
2017-May-22 20:28N 54°28' E 018°42'0 0.0
2017-May-22 19:58N 54°28' E 018°42'0 0.0
2017-May-22 19:28N 54°28' E 018°42'0 0.0
2017-May-22 18:58N 54°28' E 018°42'0 0.0
2017-May-22 18:28N 54°28' E 018°42'0 0.0
2017-May-22 17:58N 54°28' E 018°42'0 0.0
2017-May-22 17:28N 54°28' E 018°42'0 0.0
2017-May-22 16:58N 54°28' E 018°42'0 0.0
2017-May-22 16:25N 54°28' E 018°42'0 0.0
2017-May-22 15:58N 54°28' E 018°42'0 0.0
2017-May-22 15:28N 54°28' E 018°42'0 0.0
2017-May-22 14:55N 54°28' E 018°42'0 0.0
2017-May-22 13:58N 54°27' E 018°42'0 0.0
2017-May-22 13:28N 54°27' E 018°42'0 0.0
2017-May-22 12:58N 54°27' E 018°42'0 0.0
2017-May-22 12:28N 54°27' E 018°42'0 0.0
2017-May-22 11:58N 54°27' E 018°42'0 0.0
2017-May-22 11:28N 54°27' E 018°42'0 0.0
2017-May-22 10:58N 54°27' E 018°42'0 0.0
2017-May-22 10:28N 54°27' E 018°42'0 0.0
2017-May-22 09:58N 54°27' E 018°42'0 0.0
2017-May-22 09:28N 54°27' E 018°42'0 0.0
2017-May-22 08:58N 54°27' E 018°42'0 0.0
2017-May-22 08:28N 54°27' E 018°42'0 0.0
2017-May-22 07:58N 54°27' E 018°42'0 0.0
2017-May-22 07:28N 54°27' E 018°42'0 0.0
2017-May-22 06:58N 54°27' E 018°42'0 0.0
2017-May-22 06:28N 54°27' E 018°42'0 0.0
2017-May-22 05:58N 54°27' E 018°42'0 0.0
2017-May-22 05:28N 54°27' E 018°42'0 0.2
2017-May-22 05:01N 54°28' E 018°42'3 5.6
2017-May-22 04:31N 54°30' E 018°44'611.4
2017-May-22 04:01N 54°34' E 018°51'510.6
2017-May-22 03:31N 54°39' E 018°55'510.2
2017-May-22 03:00N 54°44' E 018°59'4 8.4
2017-May-22 02:30N 54°48' E 018°57'611.0
2017-May-22 02:00N 54°51' E 018°50'511.0
2017-May-22 01:31N 54°55' E 018°42'611.2
2017-May-22 01:01N 54°58' E 018°35'611.2
2017-May-22 00:30N 55°01' E 018°26'611.1
2017-May-22 00:00N 54°60' E 018°16'511.1
2017-May-21 23:30N 54°58' E 018°07'611.0
2017-May-21 23:00N 54°57' E 017°58'611.1
2017-May-21 22:30N 54°56' E 017°48'611.0
2017-May-21 22:00N 54°55' E 017°39'8711.6
2017-May-21 14:31N 54°39' E 015°10'811.6
2017-May-21 13:52N 54°38' E 014°57'511.7
2017-May-21 13:28N 54°38' E 014°49'6711.2
2017-May-21 07:32N 54°47' E 012°55'011.7
2017-May-21 07:30N 54°47' E 012°55'611.6
2017-May-21 07:00N 54°46' E 012°45'611.5
2017-May-21 06:30N 54°42' E 012°37'1611.0
2017-May-21 05:02N 54°31' E 012°17'011.7
2017-May-21 05:00N 54°31' E 012°16'3910.1
2017-May-21 01:10N 54°35' E 011°10'211.8
2017-May-21 01:00N 54°35' E 011°06'72 6.9
2017-May-20 14:41N 54°02' E 009°18'5 7.9
2017-May-20 14:00N 53°57' E 009°14'0 0.7
2017-May-20 13:30N 53°56' E 009°13'2 4.8
2017-May-20 13:00N 53°55' E 009°11'0 0.0
2017-May-20 12:30N 53°55' E 009°11'0 0.0
2017-May-20 12:00N 53°55' E 009°11'0 0.0
2017-May-20 11:30N 53°55' E 009°11'0 0.0
2017-May-20 11:01N 53°55' E 009°11'0 0.0
2017-May-20 10:30N 53°55' E 009°11'0 0.0
2017-May-20 10:00N 53°55' E 009°11'0 0.0
2017-May-20 09:30N 53°55' E 009°11'0 0.0
2017-May-20 09:00N 53°55' E 009°11'0 0.0
2017-May-20 08:30N 53°55' E 009°11'0 0.9
2017-May-20 08:00N 53°54' E 009°10'1 2.2
2017-May-20 07:30N 53°54' E 009°09'2 3.5
2017-May-20 07:00N 53°53' E 009°06'4 8.6
2017-May-20 06:30N 53°51' E 008°59'713.4
2017-May-20 06:00N 53°50' E 008°48'712.8
2017-May-20 05:26N 53°56' E 008°40'712.8
2017-May-20 04:51N 53°59' E 008°28'201 9.7
2017-May-19 08:13N 52°44' E 003°15'312.2
2017-May-19 08:00N 52°41' E 003°15'612.1
2017-May-19 07:29N 52°35' E 003°13'66 9.7
2017-May-19 00:43N 51°37' E 002°23'2 9.0
2017-May-19 00:30N 51°35' E 002°21'4 8.8
2017-May-19 00:00N 51°32' E 002°17'4 8.9
2017-May-18 23:30N 51°28' E 002°13'4 8.9
2017-May-18 23:00N 51°25' E 002°08'4 9.0
2017-May-18 22:30N 51°23' E 002°02'5 9.6
2017-May-18 22:00N 51°26' E 001°55'510.6
2017-May-18 21:30N 51°30' E 001°49'510.9
2017-May-18 21:00N 51°30' E 001°40'510.2
2017-May-18 20:30N 51°28' E 001°33'4 8.5
2017-May-18 20:00N 51°25' E 001°28'1 2.6
2017-May-18 19:30N 51°25' E 001°26'0 0.0
2017-May-18 19:00N 51°25' E 001°26'0 0.0
2017-May-18 18:30N 51°25' E 001°26'0 0.0
2017-May-18 17:59N 51°25' E 001°26'0 0.2
2017-May-18 17:30N 51°25' E 001°26'0 0.1
2017-May-18 17:00N 51°25' E 001°26'0 0.0
2017-May-18 16:30N 51°25' E 001°26'0 0.0
2017-May-18 16:00N 51°25' E 001°26'0 0.0
2017-May-18 15:30N 51°25' E 001°26'0 0.0
2017-May-18 15:00N 51°25' E 001°26'0 0.1
2017-May-18 14:30N 51°25' E 001°26'0 0.0
2017-May-18 13:30N 51°25' E 001°26'0 0.0
2017-May-18 13:00N 51°25' E 001°26'0 0.0
2017-May-18 12:30N 51°25' E 001°26'0 0.0
2017-May-18 12:00N 51°25' E 001°26'0 0.0
2017-May-18 11:30N 51°25' E 001°26'0 0.0
2017-May-18 11:00N 51°25' E 001°26'0 0.1
2017-May-18 10:30N 51°25' E 001°26'0 0.1
2017-May-18 10:00N 51°25' E 001°26'0 0.0
2017-May-18 09:30N 51°25' E 001°26'0 0.0
2017-May-18 09:00N 51°25' E 001°26'0 0.0
2017-May-18 08:30N 51°25' E 001°26'0 0.0
2017-May-18 08:01N 51°25' E 001°26'0 0.0
2017-May-18 07:30N 51°25' E 001°26'0 0.0
2017-May-18 07:00N 51°25' E 001°26'0 0.0
2017-May-18 06:30N 51°25' E 001°26'0 0.0
2017-May-18 06:01N 51°25' E 001°26'0 0.0
2017-May-18 05:30N 51°25' E 001°26'0 0.2
2017-May-18 05:00N 51°25' E 001°26'0 0.1
2017-May-18 04:30N 51°25' E 001°26'0 0.0
2017-May-18 04:00N 51°25' E 001°26'0 0.0
2017-May-18 03:30N 51°25' E 001°26'0 0.6
2017-May-18 03:00N 51°25' E 001°26'2 4.3
2017-May-18 02:30N 51°27' E 001°28'9 9.7
2017-May-18 01:37N 51°29' E 001°14'1 9.7
2017-May-18 01:29N 51°29' E 001°12'5 9.9
2017-May-18 01:00N 51°29' E 001°05'710.3
2017-May-18 00:20N 51°29' E 000°54'410.7
2017-May-18 00:00N 51°29' E 000°48'511.2
2017-May-17 23:31N 51°30' E 000°39'611.2
2017-May-17 23:01N 51°30' E 000°30'510.7
2017-May-17 22:31N 51°27' E 000°23'4 7.5
2017-May-17 22:01N 51°28' E 000°17'5 9.6
2017-May-17 21:31N 51°30' E 000°10'0 0.1
2017-May-17 21:00N 51°30' E 000°10'0 0.0
2017-May-17 20:30N 51°30' E 000°10'0 0.0
2017-May-17 20:00N 51°30' E 000°10'0 0.0
2017-May-17 19:30N 51°30' E 000°10'0 0.0
2017-May-17 19:00N 51°30' E 000°10'0 0.0
2017-May-17 18:24N 51°30' E 000°10'0 0.0
2017-May-17 18:00N 51°30' E 000°10'0 0.0
2017-May-17 17:30N 51°30' E 000°10'0 0.0
2017-May-17 17:00N 51°30' E 000°10'0 0.0
2017-May-17 16:30N 51°30' E 000°10'0 0.0
2017-May-17 16:00N 51°30' E 000°10'0 0.0
2017-May-17 15:30N 51°30' E 000°10'0 0.0
2017-May-17 15:00N 51°30' E 000°10'0 0.0
2017-May-17 14:00N 51°30' E 000°10'0 0.0
2017-May-17 13:30N 51°30' E 000°10'0 0.0
2017-May-17 13:00N 51°30' E 000°10'0 0.0
2017-May-17 12:27N 51°30' E 000°10'0 0.0
2017-May-17 11:57N 51°30' E 000°10'0 0.0
2017-May-17 11:30N 51°30' E 000°10'0 0.0
2017-May-17 11:00N 51°30' E 000°10'0 0.0
2017-May-17 10:30N 51°30' E 000°10'0 0.0
2017-May-17 09:57N 51°30' E 000°10'0 0.0
2017-May-17 09:30N 51°30' E 000°10'0 0.0
2017-May-17 09:01N 51°30' E 000°10'2 4.3
2017-May-17 08:30N 51°29' E 000°14'1 2.5
2017-May-17 08:01N 51°28' E 000°15'0 0.0
2017-May-17 07:31N 51°28' E 000°15'0 0.0
2017-May-17 07:00N 51°28' E 000°15'0 0.0
2017-May-17 06:31N 51°28' E 000°15'0 0.0
2017-May-17 06:00N 51°28' E 000°15'0 0.0
2017-May-17 05:31N 51°28' E 000°15'0 0.0
2017-May-17 05:01N 51°28' E 000°15'0 0.0
2017-May-17 04:31N 51°28' E 000°15'0 0.0
2017-May-17 04:01N 51°28' E 000°15'0 0.0
2017-May-17 03:31N 51°28' E 000°15'0 0.0
2017-May-17 03:01N 51°28' E 000°15'0 0.0
2017-May-17 02:31N 51°28' E 000°15'0 0.0
2017-May-17 02:01N 51°28' E 000°15'0 0.0
2017-May-17 01:31N 51°28' E 000°15'0 0.0
2017-May-17 01:01N 51°28' E 000°15'0 0.0
2017-May-17 00:31N 51°28' E 000°15'0 0.0
2017-May-17 00:01N 51°28' E 000°15'0 0.0
2017-May-16 23:31N 51°28' E 000°15'0 0.0
2017-May-16 23:01N 51°28' E 000°15'0 0.0
2017-May-16 22:31N 51°28' E 000°15'0 0.0
2017-May-16 22:01N 51°28' E 000°15'0 0.0
2017-May-16 21:31N 51°28' E 000°15'0 0.0
2017-May-16 21:01N 51°28' E 000°15'0 0.0
2017-May-16 20:31N 51°28' E 000°15'0 0.0
2017-May-16 20:01N 51°28' E 000°15'0 0.0
2017-May-16 19:31N 51°28' E 000°15'0 0.0
2017-May-16 19:01N 51°28' E 000°15'0 0.0
2017-May-16 18:31N 51°28' E 000°15'0 0.0
2017-May-16 18:01N 51°28' E 000°15'0 0.0
2017-May-16 17:31N 51°28' E 000°15'0 0.0
2017-May-16 17:01N 51°28' E 000°15'0 0.0
2017-May-16 16:31N 51°28' E 000°15'0 0.0
2017-May-16 16:01N 51°28' E 000°15'0 0.0
2017-May-16 15:31N 51°28' E 000°15'0 0.1
2017-May-16 15:01N 51°28' E 000°15'3 5.5
2017-May-16 14:31N 51°28' E 000°20'8 8.0
2017-May-16 13:30N 51°30' E 000°32'510.7
2017-May-16 13:00N 51°30' E 000°40'510.9
2017-May-16 12:30N 51°30' E 000°49'711.1
2017-May-16 11:54N 51°30' E 000°60'411.2
2017-May-16 11:30N 51°30' E 001°07'611.3
2017-May-16 10:58N 51°29' E 001°17'710.8
2017-May-16 10:22N 51°28' E 001°27'3 8.7
2017-May-16 10:00N 51°25' E 001°29'2 3.4
2017-May-16 09:30N 51°25' E 001°27'0 0.4
2017-May-16 09:00N 51°25' E 001°27'0 0.3
2017-May-16 08:30N 51°25' E 001°27'0 0.0
2017-May-16 08:00N 51°25' E 001°27'0 0.0
2017-May-16 07:30N 51°25' E 001°27'0 0.0
2017-May-16 07:00N 51°25' E 001°27'0 0.0
2017-May-16 06:30N 51°25' E 001°27'0 0.0
2017-May-16 06:00N 51°25' E 001°27'0 0.0
2017-May-16 05:30N 51°25' E 001°27'0 0.0
2017-May-16 05:00N 51°25' E 001°27'0 0.1
2017-May-16 04:30N 51°25' E 001°27'0 0.1
2017-May-16 04:00N 51°25' E 001°27'0 0.1
2017-May-16 03:30N 51°25' E 001°26'0 0.1
2017-May-16 03:00N 51°25' E 001°26'0 0.0
2017-May-16 02:30N 51°25' E 001°26'0 0.0
2017-May-16 02:00N 51°25' E 001°26'0 0.0
2017-May-16 01:30N 51°25' E 001°26'0 0.0
2017-May-16 01:00N 51°25' E 001°26'0 0.0
2017-May-16 00:30N 51°25' E 001°26'0 0.0
2017-May-16 00:00N 51°25' E 001°26'  

Dump ship's entire track history